createdAt,value
2017-06-10T00:00:23.386Z,98.40
2017-06-10T00:02:50.977Z,98.30
2017-06-10T00:05:18.606Z,98.30
2017-06-10T00:07:46.168Z,98.10
2017-06-10T00:10:13.703Z,98.10
2017-06-10T00:12:41.258Z,98.30
2017-06-10T00:15:08.831Z,98.00
2017-06-10T00:17:36.435Z,98.30
2017-06-10T00:20:04.063Z,98.20
2017-06-10T00:22:31.625Z,98.30
2017-06-10T00:24:59.206Z,98.30
2017-06-10T00:27:26.840Z,98.30
2017-06-10T00:29:54.389Z,98.10
2017-06-10T00:32:22.005Z,98.30
2017-06-10T00:34:49.539Z,98.40
2017-06-10T00:37:17.086Z,98.20
2017-06-10T00:39:44.677Z,98.20
2017-06-10T00:42:12.251Z,98.20
2017-06-10T00:44:39.846Z,98.30
2017-06-10T00:47:07.457Z,98.20
2017-06-10T00:49:35.001Z,98.20
2017-06-10T00:52:02.563Z,98.00
2017-06-10T00:54:30.134Z,98.00
2017-06-10T00:56:57.787Z,98.00
2017-06-10T00:59:25.328Z,98.30
2017-06-10T01:01:52.893Z,98.10
2017-06-10T01:04:20.424Z,98.00
2017-06-10T01:06:48.758Z,98.00
2017-06-10T01:09:16.320Z,98.00
2017-06-10T01:11:43.907Z,97.90
2017-06-10T01:14:11.467Z,98.00
2017-06-10T01:16:39.810Z,98.30
2017-06-10T01:19:07.403Z,98.10
2017-06-10T01:21:34.936Z,98.10
2017-06-10T01:24:02.476Z,98.00
2017-06-10T01:26:30.006Z,98.10
2017-06-10T01:28:58.336Z,98.20
2017-06-10T01:31:25.921Z,98.10
2017-06-10T01:33:53.450Z,98.10
2017-06-10T01:36:20.998Z,97.70
2017-06-10T01:38:48.535Z,97.90
2017-06-10T01:41:16.129Z,98.10
2017-06-10T01:43:43.689Z,98.00
2017-06-10T01:46:11.254Z,98.10
2017-06-10T01:48:38.864Z,98.10
2017-06-10T01:51:07.171Z,98.10
2017-06-10T01:53:34.706Z,98.10
2017-06-10T01:56:03.002Z,98.50
2017-06-10T01:58:31.517Z,98.40
2017-06-10T02:00:59.046Z,98.10
2017-06-10T02:03:26.602Z,98.40
2017-06-10T02:05:54.183Z,98.40
2017-06-10T02:08:21.763Z,98.00
2017-06-10T02:10:49.323Z,98.10
2017-06-10T02:13:16.862Z,98.20
2017-06-10T02:15:44.405Z,98.30
2017-06-10T02:18:12.018Z,98.20
2017-06-10T02:20:39.552Z,98.30
2017-06-10T02:23:07.214Z,98.20
2017-06-10T02:25:34.763Z,97.80
2017-06-10T02:28:02.311Z,97.70
2017-06-10T02:30:29.852Z,97.90
2017-06-10T02:32:57.461Z,98.10
2017-06-10T02:35:24.999Z,98.10
2017-06-10T02:37:52.554Z,98.20
2017-06-10T02:40:20.166Z,98.20
2017-06-10T02:42:47.699Z,98.60
2017-06-10T02:45:15.272Z,98.30
2017-06-10T02:47:42.848Z,98.20
2017-06-10T02:50:10.398Z,98.00
2017-06-10T02:52:37.930Z,98.00
2017-06-10T02:55:05.505Z,99.40
2017-06-10T02:57:33.186Z,99.60
2017-06-10T03:00:00.714Z,99.50
2017-06-10T03:02:28.247Z,99.20
2017-06-10T03:04:56.583Z,98.90
2017-06-10T03:07:24.134Z,98.90
2017-06-10T03:09:51.694Z,98.60
2017-06-10T03:12:19.235Z,98.70
2017-06-10T03:14:46.822Z,98.50
2017-06-10T03:17:14.406Z,98.50
2017-06-10T03:19:41.947Z,98.60
2017-06-10T03:22:09.491Z,98.50
2017-06-10T03:24:37.091Z,98.70
2017-06-10T03:27:04.627Z,98.80
2017-06-10T03:29:32.194Z,98.70
2017-06-10T03:31:59.754Z,98.70
2017-06-10T03:34:27.295Z,98.90
2017-06-10T03:36:54.834Z,98.80
2017-06-10T03:39:22.362Z,98.70
2017-06-10T03:41:49.897Z,98.70
2017-06-10T03:44:17.449Z,98.80
2017-06-10T03:46:45.009Z,98.70
2017-06-10T03:49:12.582Z,98.50
2017-06-10T03:51:40.118Z,98.50
2017-06-10T03:54:07.690Z,98.50
2017-06-10T03:56:35.249Z,98.40
2017-06-10T03:59:02.811Z,98.80
2017-06-10T04:01:30.355Z,99.10
2017-06-10T04:03:57.942Z,98.40
2017-06-10T04:09:19.574Z,98.30
2017-06-10T04:11:47.181Z,98.30
2017-06-10T04:14:15.486Z,98.80
2017-06-10T04:16:43.116Z,98.70
2017-06-10T04:19:10.662Z,98.60
2017-06-10T04:21:38.204Z,98.60
2017-06-10T04:24:05.858Z,98.50
2017-06-10T04:26:33.422Z,98.90
2017-06-10T04:29:00.967Z,99.00
2017-06-10T04:31:28.510Z,99.00
2017-06-10T04:33:56.103Z,98.80
2017-06-10T04:36:23.675Z,99.00
2017-06-10T04:38:51.206Z,99.00
2017-06-10T04:41:18.805Z,99.00
2017-06-10T04:43:46.380Z,99.10
2017-06-10T04:46:13.944Z,99.10
2017-06-10T04:48:41.577Z,99.20
2017-06-10T04:51:09.151Z,99.00
2017-06-10T04:53:36.791Z,98.30
2017-06-10T04:56:04.331Z,98.70
2017-06-10T04:58:31.929Z,98.60
2017-06-10T05:00:59.482Z,98.80
2017-06-10T05:03:27.027Z,98.50
2017-06-10T05:05:54.711Z,98.10
2017-06-10T05:08:22.245Z,98.50
2017-06-10T05:10:49.793Z,98.70
2017-06-10T05:13:17.433Z,98.00
2017-06-10T05:15:44.969Z,97.50
2017-06-10T05:18:12.606Z,95.10
2017-06-10T05:20:40.274Z,90.00
2017-06-10T05:23:07.954Z,84.20
2017-06-10T05:25:35.602Z,77.60
2017-06-10T05:28:03.164Z,75.70
2017-06-10T05:30:30.722Z,71.30
2017-06-10T05:32:58.282Z,72.90
2017-06-10T05:35:25.817Z,74.70
2017-06-10T05:37:53.350Z,67.80
2017-06-10T05:40:21.779Z,70.10
2017-06-10T05:42:49.438Z,69.90
2017-06-10T05:45:17.002Z,68.80
2017-06-10T05:47:44.538Z,68.00
2017-06-10T05:50:12.065Z,68.20
2017-06-10T05:52:39.686Z,65.30
2017-06-10T05:55:07.249Z,66.80
2017-06-10T05:57:34.806Z,73.60
2017-06-10T06:00:02.348Z,71.50
2017-06-10T06:02:29.882Z,70.20
2017-06-10T06:04:58.184Z,66.70
2017-06-10T06:07:25.771Z,66.70
2017-06-10T06:09:53.326Z,67.20
2017-06-10T06:12:20.894Z,60.10
2017-06-10T06:14:49.368Z,63.30
2017-06-10T06:17:16.910Z,60.10
2017-06-10T06:19:44.489Z,63.10
2017-06-10T06:22:12.034Z,58.70
2017-06-10T06:24:39.565Z,60.60
2017-06-10T06:27:07.911Z,57.30
2017-06-10T06:29:35.559Z,57.10
2017-06-10T06:32:03.122Z,59.30
2017-06-10T06:34:30.690Z,58.60
2017-06-10T06:36:58.242Z,62.10
2017-06-10T06:39:39.082Z,56.90
2017-06-10T06:42:06.670Z,58.50
2017-06-10T06:44:34.237Z,56.90
2017-06-10T06:47:01.806Z,56.50
2017-06-10T06:49:29.352Z,54.60
2017-06-10T06:51:56.946Z,55.70
2017-06-10T06:54:24.502Z,53.40
2017-06-10T06:56:52.134Z,56.90
2017-06-10T06:59:19.670Z,57.00
2017-06-10T07:01:47.271Z,52.50
2017-06-10T07:04:14.930Z,53.00
2017-06-10T07:06:42.493Z,56.10
2017-06-10T07:09:10.062Z,56.20
2017-06-10T07:11:37.645Z,56.40
2017-06-10T07:14:05.189Z,62.60
2017-06-10T07:16:32.722Z,57.00
2017-06-10T07:19:00.254Z,62.50
2017-06-10T07:21:27.850Z,60.50
2017-06-10T07:23:55.383Z,62.80
2017-06-10T07:26:22.998Z,65.40
2017-06-10T07:28:50.543Z,62.00
2017-06-10T07:31:18.090Z,57.30
2017-06-10T07:33:45.657Z,57.30
2017-06-10T07:36:13.192Z,58.80
2017-06-10T07:38:40.781Z,59.60
2017-06-10T07:41:08.314Z,58.30
2017-06-10T07:43:35.901Z,59.10
2017-06-10T07:46:03.432Z,59.40
2017-06-10T07:48:31.018Z,60.30
2017-06-10T07:50:58.550Z,59.70
2017-06-10T07:53:26.140Z,58.40
2017-06-10T07:55:53.803Z,59.20
2017-06-10T07:58:21.335Z,58.40
2017-06-10T08:00:48.930Z,61.60
2017-06-10T08:03:16.490Z,58.10
2017-06-10T08:05:44.050Z,59.20
2017-06-10T08:08:11.598Z,59.20
2017-06-10T08:10:39.166Z,62.50
2017-06-10T08:13:06.730Z,59.30
2017-06-10T08:15:34.290Z,63.70
2017-06-10T08:18:01.950Z,63.50
2017-06-10T08:20:29.510Z,60.00
2017-06-10T08:22:57.058Z,58.60
2017-06-10T08:25:24.590Z,58.20
2017-06-10T08:27:52.912Z,59.30
2017-06-10T08:30:20.578Z,59.20
2017-06-10T08:32:48.142Z,57.60
2017-06-10T08:35:15.714Z,58.70
2017-06-10T08:37:43.263Z,61.80
2017-06-10T08:40:10.819Z,62.60
2017-06-10T08:42:38.396Z,62.10
2017-06-10T08:45:06.039Z,62.80
2017-06-10T08:47:33.711Z,59.60
2017-06-10T08:50:01.306Z,59.70
2017-06-10T08:52:28.927Z,57.20
2017-06-10T08:54:56.459Z,61.20
2017-06-10T08:57:23.988Z,62.40
2017-06-10T08:59:51.624Z,59.60
2017-06-10T09:02:19.154Z,61.90
2017-06-10T09:04:46.743Z,61.70
2017-06-10T09:07:14.297Z,61.80
2017-06-10T09:09:41.869Z,57.60
2017-06-10T09:12:09.421Z,61.60
2017-06-10T09:14:36.951Z,59.70
2017-06-10T09:17:04.543Z,60.20
2017-06-10T09:19:32.103Z,59.50
2017-06-10T09:21:59.658Z,62.50
2017-06-10T09:24:27.194Z,56.50
2017-06-10T09:26:54.758Z,58.50
2017-06-10T09:29:22.357Z,58.60
2017-06-10T09:31:49.892Z,60.60
2017-06-10T09:34:17.430Z,56.40
2017-06-10T09:36:44.972Z,62.30
2017-06-10T09:39:13.406Z,63.60
2017-06-10T09:41:40.971Z,63.00
2017-06-10T09:44:08.626Z,57.30
2017-06-10T09:46:36.284Z,60.40
2017-06-10T09:49:03.842Z,60.10
2017-06-10T09:51:31.424Z,60.50
2017-06-10T09:53:58.978Z,59.70
2017-06-10T09:56:26.639Z,57.80
2017-06-10T09:58:55.122Z,62.20
2017-06-10T10:01:22.786Z,58.60
2017-06-10T10:03:50.318Z,56.40
2017-06-10T10:06:17.902Z,61.80
2017-06-10T10:08:45.455Z,55.80
2017-06-10T10:11:12.986Z,57.60
2017-06-10T10:13:41.411Z,58.40
2017-06-10T10:16:08.977Z,58.20
2017-06-10T10:18:36.550Z,58.20
2017-06-10T10:21:04.190Z,59.60
2017-06-10T10:23:31.726Z,57.30
2017-06-10T10:25:59.321Z,61.30
2017-06-10T10:28:26.898Z,62.20
2017-06-10T10:30:54.543Z,60.20
2017-06-10T10:33:22.085Z,56.90
2017-06-10T10:35:49.656Z,56.90
2017-06-10T10:38:17.222Z,59.30
2017-06-10T10:40:44.774Z,62.40
2017-06-10T10:43:12.338Z,59.00
2017-06-10T10:45:39.901Z,60.60
2017-06-10T10:48:07.466Z,58.50
2017-06-10T10:50:35.020Z,55.50
2017-06-10T10:53:02.590Z,58.30
2017-06-10T10:55:30.155Z,59.00
2017-06-10T10:57:57.718Z,60.40
2017-06-10T11:00:25.243Z,58.50
2017-06-10T11:02:52.823Z,58.70
2017-06-10T11:05:20.394Z,57.90
2017-06-10T11:07:47.956Z,56.90
2017-06-10T11:10:15.626Z,60.00
2017-06-10T11:12:43.280Z,61.50
2017-06-10T11:15:10.839Z,62.10
2017-06-10T11:17:38.403Z,59.20
2017-06-10T11:20:05.954Z,64.80
2017-06-10T11:22:33.515Z,60.30
2017-06-10T11:25:01.074Z,61.60
2017-06-10T11:27:28.744Z,59.10
2017-06-10T11:29:56.302Z,56.40
2017-06-10T11:32:23.826Z,57.70
2017-06-10T11:34:51.419Z,61.60
2017-06-10T11:37:18.950Z,59.50
2017-06-10T11:39:46.518Z,59.10
2017-06-10T11:42:14.050Z,56.40
2017-06-10T11:44:42.474Z,57.50
2017-06-10T11:47:10.016Z,57.50
2017-06-10T11:49:37.551Z,64.50
2017-06-10T11:52:05.889Z,62.20
2017-06-10T11:54:33.443Z,61.80
2017-06-10T11:57:01.115Z,60.40
2017-06-10T11:59:28.646Z,59.10
2017-06-10T12:01:56.234Z,64.10
2017-06-10T12:04:23.766Z,57.90
2017-06-10T12:06:51.362Z,59.20
2017-06-10T12:09:18.906Z,57.80
2017-06-10T12:11:46.434Z,59.10
2017-06-10T12:14:14.041Z,58.30
2017-06-10T12:16:41.574Z,56.30
2017-06-10T12:19:09.138Z,57.20
2017-06-10T12:21:36.730Z,57.10
2017-06-10T12:24:04.261Z,56.00
2017-06-10T12:26:31.790Z,58.50
2017-06-10T12:29:00.086Z,57.90
2017-06-10T12:31:27.682Z,57.90
2017-06-10T12:33:55.215Z,60.00
2017-06-10T12:36:22.798Z,60.20
2017-06-10T12:38:50.354Z,62.30
2017-06-10T12:41:17.919Z,58.70
2017-06-10T12:43:45.495Z,59.00
2017-06-10T12:46:13.034Z,61.20
2017-06-10T12:48:40.698Z,57.70
2017-06-10T12:51:08.266Z,60.80
2017-06-10T12:53:35.831Z,58.90
2017-06-10T12:56:03.394Z,60.80
2017-06-10T12:58:30.938Z,59.00
2017-06-10T13:00:58.596Z,61.40
2017-06-10T13:03:26.176Z,56.20
2017-06-10T13:05:53.724Z,58.40
2017-06-10T13:08:21.277Z,58.20
2017-06-10T13:10:48.856Z,56.00
2017-06-10T13:13:16.404Z,54.10
2017-06-10T13:15:43.973Z,60.30
2017-06-10T13:18:11.510Z,56.40
2017-06-10T13:20:39.099Z,58.20
2017-06-10T13:23:06.762Z,57.50
2017-06-10T13:25:34.321Z,52.70
2017-06-10T13:28:01.854Z,59.00
2017-06-10T13:30:29.393Z,55.80
2017-06-10T13:32:57.705Z,54.50
2017-06-10T13:35:25.383Z,54.50
2017-06-10T13:37:52.939Z,56.80
2017-06-10T13:40:20.507Z,57.40
2017-06-10T13:42:48.062Z,54.00
2017-06-10T13:45:15.620Z,55.10
2017-06-10T13:47:43.278Z,57.20
2017-06-10T13:50:10.838Z,59.80
2017-06-10T13:52:38.410Z,56.90
2017-06-10T13:55:05.984Z,55.10
2017-06-10T13:57:33.530Z,56.40
2017-06-10T14:00:01.087Z,55.40
2017-06-10T14:02:28.615Z,56.70
2017-06-10T14:04:56.206Z,54.80
2017-06-10T14:07:23.774Z,53.00
2017-06-10T14:09:51.331Z,55.00
2017-06-10T14:12:18.862Z,54.60
2017-06-10T14:14:46.462Z,53.10
2017-06-10T14:17:14.120Z,52.60
2017-06-10T14:19:41.682Z,57.50
2017-06-10T14:22:09.341Z,52.10
2017-06-10T14:24:36.907Z,51.70
2017-06-10T14:27:04.460Z,54.70
2017-06-10T14:29:32.001Z,58.50
2017-06-10T14:31:59.588Z,54.50
2017-06-10T14:34:27.142Z,54.20
2017-06-10T14:36:54.677Z,56.50
2017-06-10T14:39:22.274Z,59.50
2017-06-10T14:41:49.820Z,54.20
2017-06-10T14:44:17.383Z,53.70
2017-06-10T14:46:44.919Z,52.30
2017-06-10T14:49:12.452Z,57.30
2017-06-10T14:51:40.785Z,56.60
2017-06-10T14:54:08.356Z,56.60
2017-06-10T14:56:35.913Z,58.80
2017-06-10T14:59:03.471Z,58.10
2017-06-10T15:01:31.012Z,58.10
2017-06-10T15:03:58.588Z,57.80
2017-06-10T15:06:26.150Z,55.90
2017-06-10T15:08:53.703Z,58.90
2017-06-10T15:11:21.276Z,57.60
2017-06-10T15:13:48.838Z,57.30
2017-06-10T15:16:16.386Z,53.70
2017-06-10T15:18:43.930Z,57.00
2017-06-10T15:21:11.466Z,57.00
2017-06-10T15:23:39.793Z,57.00
2017-06-10T15:26:07.446Z,57.00
2017-06-10T15:28:35.019Z,55.00
2017-06-10T15:31:02.598Z,55.40
2017-06-10T15:33:30.234Z,56.10
2017-06-10T15:35:57.794Z,55.10
2017-06-10T15:38:25.354Z,54.60
2017-06-10T15:40:52.887Z,57.90
2017-06-10T15:43:20.441Z,54.80
2017-06-10T15:45:48.737Z,58.10
2017-06-10T15:48:16.318Z,57.90
2017-06-10T15:50:43.851Z,58.60
2017-06-10T15:53:11.455Z,56.60
2017-06-10T15:55:39.010Z,55.40
2017-06-10T15:58:06.558Z,57.30
2017-06-10T16:00:34.130Z,56.10
2017-06-10T16:03:01.700Z,57.00
2017-06-10T16:05:29.353Z,55.40
2017-06-10T16:07:56.910Z,57.30
2017-06-10T16:10:24.446Z,58.70
2017-06-10T16:12:51.969Z,58.20
2017-06-10T16:15:19.595Z,58.90
2017-06-10T16:17:47.250Z,57.70
2017-06-10T16:20:14.818Z,58.70
2017-06-10T16:22:42.377Z,57.70
2017-06-10T16:25:09.939Z,57.70
2017-06-10T16:27:37.518Z,57.00
2017-06-10T16:30:05.051Z,56.30
2017-06-10T16:32:32.598Z,56.70
2017-06-10T16:35:00.182Z,57.30
2017-06-10T16:37:27.739Z,57.40
2017-06-10T16:39:55.395Z,57.70
2017-06-10T16:42:23.022Z,57.50
2017-06-10T16:44:51.314Z,56.00
2017-06-10T16:47:18.858Z,56.00
2017-06-10T16:49:46.460Z,58.20
2017-06-10T16:52:14.126Z,56.90
2017-06-10T16:54:41.683Z,55.30
2017-06-10T16:57:09.254Z,56.40
2017-06-10T16:59:36.786Z,56.80
2017-06-10T17:02:04.350Z,58.10
2017-06-10T17:04:31.935Z,57.90
2017-06-10T17:06:59.495Z,57.20
2017-06-10T17:09:27.150Z,57.10
2017-06-10T17:11:54.690Z,57.90
2017-06-10T17:14:22.275Z,57.10
2017-06-10T17:16:49.842Z,58.20
2017-06-10T17:19:17.375Z,58.50
2017-06-10T17:21:44.961Z,56.80
2017-06-10T17:24:12.510Z,58.20
2017-06-10T17:26:40.096Z,57.20
2017-06-10T17:29:07.649Z,57.50
2017-06-10T17:31:35.312Z,56.80
2017-06-10T17:34:02.862Z,59.10
2017-06-10T17:36:30.394Z,59.10
2017-06-10T17:38:57.998Z,61.60
2017-06-10T17:41:25.537Z,58.10
2017-06-10T17:43:53.106Z,61.10
2017-06-10T17:46:20.666Z,58.80
2017-06-10T17:48:48.259Z,59.70
2017-06-10T17:51:15.795Z,61.10
2017-06-10T17:53:43.355Z,60.00
2017-06-10T17:56:10.912Z,58.00
2017-06-10T18:01:32.558Z,59.20
2017-06-10T18:04:00.100Z,59.20
2017-06-10T18:06:27.674Z,58.40
2017-06-10T18:08:55.239Z,58.80
2017-06-10T18:11:22.953Z,60.50
2017-06-10T18:13:51.422Z,61.70
2017-06-10T18:16:19.739Z,59.70
2017-06-10T18:18:47.275Z,59.60
2017-06-10T18:21:15.574Z,59.50
2017-06-10T18:23:48.957Z,59.50
2017-06-10T18:26:17.248Z,62.00
2017-06-10T18:28:44.802Z,61.90
2017-06-10T18:31:12.334Z,60.90
2017-06-10T18:33:39.964Z,63.80
2017-06-10T18:36:07.503Z,61.00
2017-06-10T18:38:35.035Z,62.20
2017-06-10T18:41:03.402Z,63.40
2017-06-10T18:43:31.715Z,62.90
2017-06-10T18:45:59.253Z,62.80
2017-06-10T18:48:27.833Z,63.40
2017-06-10T18:50:56.162Z,65.10
2017-06-10T18:53:23.717Z,65.00
2017-06-10T18:55:51.271Z,61.70
2017-06-10T18:58:18.934Z,64.10
2017-06-10T19:00:46.512Z,63.80
2017-06-10T19:03:14.063Z,64.40
2017-06-10T19:05:41.607Z,64.60
2017-06-10T19:08:09.183Z,64.30
2017-06-10T19:10:36.762Z,64.50
2017-06-10T19:13:04.315Z,66.30
2017-06-10T19:15:31.892Z,69.30
2017-06-10T19:17:59.557Z,67.70
2017-06-10T19:20:27.290Z,66.00
2017-06-10T19:22:54.877Z,65.80
2017-06-10T19:25:22.416Z,68.70
2017-06-10T19:27:49.954Z,70.10
2017-06-10T19:30:17.558Z,68.70
2017-06-10T19:32:45.211Z,69.60
2017-06-10T19:35:12.783Z,70.10
2017-06-10T19:37:40.320Z,70.50
2017-06-10T19:40:07.872Z,71.60
2017-06-10T19:42:35.421Z,72.00
2017-06-10T19:45:02.989Z,74.60
2017-06-10T19:47:30.672Z,75.30
2017-06-10T19:49:58.242Z,72.00
2017-06-10T19:52:25.789Z,73.20
2017-06-10T19:54:53.439Z,73.50
2017-06-10T19:57:21.034Z,75.20
2017-06-10T19:59:48.572Z,74.10
2017-06-10T20:02:16.144Z,75.50
2017-06-10T20:04:43.810Z,74.30
2017-06-10T20:07:11.347Z,74.30
2017-06-10T20:09:38.878Z,75.20
2017-06-10T20:12:07.186Z,75.70
2017-06-10T20:14:34.766Z,75.60
2017-06-10T20:17:02.307Z,76.20
2017-06-10T20:19:29.885Z,76.10
2017-06-10T20:21:57.471Z,72.60
2017-06-10T20:24:25.038Z,78.10
2017-06-10T20:26:52.601Z,78.10
2017-06-10T20:29:20.144Z,77.80
2017-06-10T20:31:47.706Z,79.20
2017-06-10T20:34:15.287Z,78.70
2017-06-10T20:36:42.924Z,78.70
2017-06-10T20:39:10.480Z,79.90
2017-06-10T20:41:38.019Z,80.10
2017-06-10T20:44:05.602Z,79.60
2017-06-10T20:46:33.163Z,79.90
2017-06-10T20:49:00.723Z,80.70
2017-06-10T20:51:28.279Z,80.30
2017-06-10T20:53:55.870Z,81.20
2017-06-10T20:56:23.495Z,81.90
2017-06-10T20:58:51.083Z,81.70
2017-06-10T21:01:18.636Z,82.30
2017-06-10T21:03:46.206Z,81.90
2017-06-10T21:06:13.778Z,82.20
2017-06-10T21:08:41.407Z,83.00
2017-06-10T21:11:09.066Z,83.70
2017-06-10T21:13:36.626Z,84.00
2017-06-10T21:16:04.202Z,83.70
2017-06-10T21:18:31.878Z,84.00
2017-06-10T21:20:59.419Z,84.40
2017-06-10T21:23:26.980Z,84.70
2017-06-10T21:25:54.538Z,84.10
2017-06-10T21:28:22.200Z,85.50
2017-06-10T21:30:49.766Z,85.20
2017-06-10T21:33:17.438Z,85.30
2017-06-10T21:35:44.970Z,86.30
2017-06-10T21:38:12.517Z,86.30
2017-06-10T21:40:40.122Z,86.70
2017-06-10T21:43:07.681Z,86.30
2017-06-10T21:45:35.344Z,87.50
2017-06-10T21:48:02.885Z,87.60
2017-06-10T21:50:30.567Z,87.80
2017-06-10T21:52:58.130Z,88.40
2017-06-10T21:55:25.683Z,87.50
2017-06-10T21:57:53.224Z,87.80
2017-06-10T22:00:20.766Z,87.60
2017-06-10T22:02:48.367Z,88.70
2017-06-10T22:05:15.943Z,88.50
2017-06-10T22:07:43.600Z,88.20
2017-06-10T22:10:11.138Z,88.80
2017-06-10T22:12:38.814Z,88.90
2017-06-10T22:15:06.363Z,88.90
2017-06-10T22:17:33.926Z,89.30
2017-06-10T22:20:01.499Z,89.90
2017-06-10T22:22:29.060Z,90.00
2017-06-10T22:24:56.637Z,90.10
2017-06-10T22:27:24.283Z,90.00
2017-06-10T22:29:51.941Z,90.10
2017-06-10T22:32:19.494Z,90.30
2017-06-10T22:34:47.073Z,90.40
2017-06-10T22:37:14.617Z,90.90
2017-06-10T22:39:42.170Z,90.70
2017-06-10T22:42:09.727Z,90.50
2017-06-10T22:44:37.303Z,90.80
2017-06-10T22:47:04.842Z,90.90
2017-06-10T22:49:32.438Z,91.00
2017-06-10T22:52:00.035Z,91.10
2017-06-10T22:54:28.346Z,91.40
2017-06-10T22:56:55.917Z,91.30
2017-06-10T22:59:23.499Z,91.30
2017-06-10T23:01:51.178Z,91.60
2017-06-10T23:04:18.721Z,91.50
2017-06-10T23:06:46.278Z,91.70
2017-06-10T23:09:13.838Z,91.70
2017-06-10T23:11:41.398Z,91.70
2017-06-10T23:14:08.943Z,91.60
2017-06-10T23:16:36.566Z,91.60
2017-06-10T23:19:04.906Z,92.00
2017-06-10T23:21:32.462Z,92.00
2017-06-10T23:24:00.139Z,91.50
2017-06-10T23:26:27.690Z,91.10
2017-06-10T23:28:55.281Z,91.10
2017-06-10T23:31:22.829Z,91.10
2017-06-10T23:33:50.367Z,91.30
2017-06-10T23:36:18.031Z,91.20
2017-06-10T23:38:45.578Z,91.40
2017-06-10T23:41:13.145Z,91.20
2017-06-10T23:43:40.708Z,91.30
2017-06-10T23:46:08.290Z,91.20
2017-06-10T23:48:35.823Z,91.60
2017-06-10T23:51:03.426Z,91.90
2017-06-10T23:53:30.975Z,91.80
2017-06-10T23:55:58.708Z,91.80
2017-06-10T23:58:26.292Z,91.90
